Time;durP1;ratioP1;P1;durP2;ratioP2;P2;SDS_P1;SDS_P2;PMS_P1;PMS_P2;Temp;Humidity;BMP_temperature;BMP_pressure;BME280_temperature;BME280_humidity;BME280_pressure;Samples;Min_cycle;Max_cycle;Signal;HPM_P1;HPM_P2
2023/09/04 00:00:29;;;;;;;4.80;4.40;;;16.30;99.90;;;;;;5051115;28;20025;-74
2023/09/04 00:02:54;;;;;;;5.00;4.60;;;16.30;99.90;;;;;;5055652;28;20017;-74
2023/09/04 00:05:20;;;;;;;5.20;4.70;;;16.30;99.90;;;;;;5059858;28;20108;-75
2023/09/04 00:07:46;;;;;;;3.70;3.35;;;16.30;99.90;;;;;;5054730;28;20385;-74
2023/09/04 00:10:12;;;;;;;6.13;4.20;;;16.30;99.90;;;;;;5057079;28;20100;-75
2023/09/04 00:12:38;;;;;;;4.90;4.45;;;16.30;99.90;;;;;;5049951;28;20540;-74
2023/09/04 00:15:05;;;;;;;4.97;4.18;;;16.30;99.90;;;;;;5062312;28;20560;-74
2023/09/04 00:17:31;;;;;;;4.80;4.40;;;16.20;99.90;;;;;;5069181;28;20074;-74
2023/09/04 00:19:57;;;;;;;5.00;4.50;;;16.20;99.90;;;;;;5063454;28;20112;-74
2023/09/04 00:22:22;;;;;;;4.45;4.05;;;16.20;99.90;;;;;;5068707;28;20533;-75
2023/09/04 00:24:48;;;;;;;4.60;4.20;;;16.20;99.90;;;;;;5069589;28;20029;-75
2023/09/04 00:27:14;;;;;;;6.07;5.13;;;16.20;99.90;;;;;;5068223;28;20017;-74
2023/09/04 00:29:40;;;;;;;4.93;4.53;;;16.20;99.90;;;;;;5082786;28;20062;-75
2023/09/04 00:32:08;;;;;;;5.05;4.15;;;16.20;99.90;;;;;;5069153;28;20092;-75
2023/09/04 00:34:34;;;;;;;4.25;3.90;;;16.20;99.90;;;;;;5069731;28;20044;-75
2023/09/04 00:37:00;;;;;;;4.75;4.35;;;16.10;99.90;;;;;;5070302;28;20466;-75
2023/09/04 00:39:25;;;;;;;4.95;4.55;;;16.10;99.90;;;;;;5068117;28;20074;-75
2023/09/04 00:41:51;;;;;;;5.97;5.40;;;16.10;99.90;;;;;;5064140;28;20079;-74
2023/09/04 00:44:17;;;;;;;5.85;4.75;;;16.10;99.90;;;;;;5053091;28;20105;-75
2023/09/04 00:46:43;;;;;;;5.80;5.13;;;16.00;99.90;;;;;;5068596;28;20060;-74
2023/09/04 00:49:12;;;;;;;4.80;4.28;;;16.10;99.90;;;;;;5069492;28;20024;-74
2023/09/04 00:51:38;;;;;;;5.45;4.95;;;16.00;99.90;;;;;;5055251;28;20017;-75
2023/09/04 00:54:05;;;;;;;5.28;4.78;;;16.00;99.90;;;;;;5069578;28;20020;-74
2023/09/04 00:56:30;;;;;;;5.05;4.57;;;16.00;99.90;;;;;;5069000;28;20413;-74
2023/09/04 00:58:56;;;;;;;4.40;4.00;;;16.00;99.90;;;;;;5070168;28;20028;-74
2023/09/04 01:01:22;;;;;;;6.88;5.80;;;16.00;99.90;;;;;;5084867;28;20419;-74
2023/09/04 01:03:48;;;;;;;6.47;5.88;;;16.00;99.90;;;;;;5069716;28;20025;-75
2023/09/04 01:06:14;;;;;;;5.55;5.05;;;16.00;99.90;;;;;;5054887;28;20469;-75
2023/09/04 01:08:39;;;;;;;6.07;5.20;;;15.90;99.90;;;;;;5049394;28;20212;-75
2023/09/04 01:11:27;;;;;;;5.75;5.05;;;15.90;99.90;;;;;;5050172;28;20351;-75
2023/09/04 01:13:55;;;;;;;6.20;5.60;;;15.90;99.90;;;;;;5049045;28;20025;-74
2023/09/04 01:16:23;;;;;;;5.40;4.90;;;15.90;99.90;;;;;;5049924;28;20078;-74
2023/09/04 01:18:49;;;;;;;5.68;5.15;;;15.90;99.90;;;;;;5049727;28;20025;-74
2023/09/04 01:21:16;;;;;;;6.32;5.00;;;15.80;99.90;;;;;;5057575;28;20021;-75
2023/09/04 01:23:41;;;;;;;6.20;5.68;;;15.80;99.90;;;;;;5068669;28;20025;-75
2023/09/04 01:26:14;;;;;;;5.05;4.28;;;15.80;99.90;;;;;;5058923;28;20524;-74
2023/09/04 01:28:43;;;;;;;5.40;4.97;;;15.80;99.90;;;;;;5064900;28;20039;-74
2023/09/04 01:31:22;;;;;;;5.60;5.15;;;15.70;99.90;;;;;;5058998;28;20485;-74
2023/09/04 01:33:54;;;;;;;5.03;4.63;;;15.70;99.90;;;;;;5049393;28;20052;-75
2023/09/04 01:36:26;;;;;;;5.55;5.00;;;15.70;99.90;;;;;;5049741;28;20025;-75
2023/09/04 01:38:53;;;;;;;5.60;4.53;;;15.60;99.90;;;;;;5049608;28;20120;-76
2023/09/04 01:41:19;;;;;;;6.05;4.93;;;15.60;99.90;;;;;;5049806;28;20029;-75
2023/09/04 01:43:44;;;;;;;5.55;4.90;;;15.60;99.90;;;;;;5049619;28;20032;-75
2023/09/04 01:46:11;;;;;;;6.35;5.13;;;15.50;99.90;;;;;;5049773;28;20432;-75
2023/09/04 01:48:36;;;;;;;5.70;5.15;;;15.50;99.90;;;;;;5049377;28;20474;-75
2023/09/04 01:51:02;;;;;;;6.50;5.47;;;15.50;99.90;;;;;;5049923;28;20025;-75
2023/09/04 01:53:27;;;;;;;6.32;5.82;;;15.50;99.90;;;;;;5068311;28;20111;-75
2023/09/04 01:55:53;;;;;;;5.07;4.57;;;15.40;99.90;;;;;;5067578;28;20068;-74
2023/09/04 01:58:18;;;;;;;6.22;5.07;;;15.40;99.90;;;;;;5069008;28;20029;-75
2023/09/04 02:00:46;;;;;;;4.90;4.47;;;15.40;99.90;;;;;;5068048;28;20028;-75
2023/09/04 02:03:12;;;;;;;5.47;4.97;;;15.40;99.90;;;;;;5058583;28;20031;-75
2023/09/04 02:05:42;;;;;;;5.60;5.10;;;15.40;99.90;;;;;;5071473;28;20099;-75
2023/09/04 02:08:08;;;;;;;6.45;5.85;;;15.30;99.90;;;;;;5071741;28;20108;-75
2023/09/04 02:10:37;;;;;;;6.40;5.68;;;15.30;99.90;;;;;;5070784;28;20080;-75
2023/09/04 02:13:03;;;;;;;5.72;5.13;;;15.30;99.90;;;;;;5066872;28;20028;-75
2023/09/04 02:15:30;;;;;;;5.68;5.18;;;15.30;99.90;;;;;;5063733;28;20029;-74
2023/09/04 02:17:55;;;;;;;6.05;5.53;;;15.30;99.90;;;;;;5051532;28;20104;-74
2023/09/04 02:20:21;;;;;;;6.97;6.20;;;15.20;99.90;;;;;;5059790;28;20108;-75
2023/09/04 02:22:47;;;;;;;7.00;6.40;;;15.20;99.90;;;;;;5062989;28;20036;-74
2023/09/04 02:25:13;;;;;;;6.43;5.85;;;15.20;99.90;;;;;;5062289;28;20037;-75
2023/09/04 02:27:39;;;;;;;7.38;6.60;;;15.20;99.90;;;;;;5061955;28;20033;-75
2023/09/04 02:30:07;;;;;;;6.72;6.13;;;15.20;99.90;;;;;;5065938;28;20123;-75
2023/09/04 02:32:33;;;;;;;7.03;6.43;;;15.20;99.90;;;;;;5061750;28;20096;-75
2023/09/04 02:34:59;;;;;;;8.18;7.40;;;15.20;99.90;;;;;;5061812;28;20061;-74
2023/09/04 02:37:26;;;;;;;7.38;6.68;;;15.20;99.90;;;;;;5062039;28;20029;-74
2023/09/04 02:39:51;;;;;;;7.88;7.07;;;15.10;99.90;;;;;;5052287;28;20025;-74
2023/09/04 02:42:17;;;;;;;7.28;6.63;;;15.10;99.90;;;;;;5066735;28;20069;-75
2023/09/04 02:44:42;;;;;;;7.53;6.82;;;15.10;99.90;;;;;;5065918;28;20052;-74
2023/09/04 02:47:08;;;;;;;6.82;6.13;;;15.10;99.90;;;;;;5066472;28;20373;-74
2023/09/04 02:49:34;;;;;;;6.90;6.18;;;15.10;99.90;;;;;;5067098;28;20036;-75
2023/09/04 02:51:59;;;;;;;6.68;6.10;;;15.10;99.90;;;;;;5072602;28;20474;-75
2023/09/04 02:54:25;;;;;;;7.28;6.55;;;15.10;99.90;;;;;;5068399;28;20028;-74
2023/09/04 02:56:51;;;;;;;7.47;6.53;;;15.00;99.90;;;;;;5052418;28;20037;-74
2023/09/04 02:59:16;;;;;;;7.57;6.88;;;15.00;99.90;;;;;;5052625;28;20417;-75
2023/09/04 03:01:42;;;;;;;8.00;7.22;;;15.00;99.90;;;;;;5052633;28;20028;-75
2023/09/04 03:04:08;;;;;;;7.20;6.55;;;15.00;99.90;;;;;;5052764;28;20061;-75
2023/09/04 03:06:33;;;;;;;9.90;8.38;;;15.00;99.90;;;;;;5052114;28;20478;-74
2023/09/04 03:08:59;;;;;;;8.30;7.50;;;14.90;99.90;;;;;;5052703;28;20029;-74
2023/09/04 03:11:25;;;;;;;8.18;7.45;;;15.00;99.90;;;;;;5052260;28;20032;-75
2023/09/04 03:13:50;;;;;;;8.35;7.30;;;14.90;99.90;;;;;;5051864;28;20079;-74
2023/09/04 03:16:16;;;;;;;7.65;6.85;;;14.90;99.90;;;;;;5052022;28;20020;-74
2023/09/04 03:18:41;;;;;;;8.40;7.60;;;14.90;99.90;;;;;;5066866;28;20064;-75
2023/09/04 03:21:08;;;;;;;8.35;7.65;;;14.90;99.90;;;;;;5052103;28;20029;-75
2023/09/04 03:23:34;;;;;;;7.80;7.00;;;14.90;99.90;;;;;;5051734;28;20082;-74
2023/09/04 03:26:00;;;;;;;7.43;6.80;;;14.90;99.90;;;;;;5052321;28;20475;-74
2023/09/04 03:28:25;;;;;;;8.57;7.78;;;14.80;99.90;;;;;;5052051;28;20032;-75
2023/09/04 03:30:51;;;;;;;8.57;7.78;;;14.80;99.90;;;;;;5051739;28;20490;-74
2023/09/04 03:33:16;;;;;;;11.68;8.25;;;14.80;99.90;;;;;;5051597;28;20029;-75
2023/09/04 03:35:42;;;;;;;8.95;8.05;;;14.80;99.90;;;;;;5051696;28;20748;-74
2023/09/04 03:38:08;;;;;;;9.93;8.93;;;14.70;99.90;;;;;;5052007;28;20017;-74
2023/09/04 03:40:33;;;;;;;10.48;9.38;;;14.70;99.90;;;;;;5050886;28;20437;-74
2023/09/04 03:42:59;;;;;;;11.27;10.10;;;14.70;99.90;;;;;;5053214;28;20029;-74
2023/09/04 03:45:24;;;;;;;9.23;8.30;;;14.70;99.90;;;;;;5051863;28;20036;-74
2023/09/04 03:47:50;;;;;;;12.38;10.38;;;14.70;99.90;;;;;;5052358;28;20429;-74
2023/09/04 03:50:16;;;;;;;9.13;8.23;;;14.70;99.90;;;;;;5059571;28;20377;-74
2023/09/04 03:52:43;;;;;;;11.95;10.85;;;14.70;99.90;;;;;;5070749;28;20024;-74
2023/09/04 03:55:10;;;;;;;11.73;10.73;;;14.80;99.90;;;;;;5071101;28;20040;-74
2023/09/04 03:57:36;;;;;;;10.65;9.50;;;14.80;99.90;;;;;;5070824;28;20023;-75
2023/09/04 04:00:10;;;;;;;11.57;9.57;;;14.80;99.90;;;;;;5071066;28;20485;-75
2023/09/04 04:02:36;;;;;;;11.98;10.90;;;14.80;99.90;;;;;;5066050;28;20049;-74
2023/09/04 04:05:02;;;;;;;12.45;11.18;;;14.80;99.90;;;;;;5065291;28;20021;-74
2023/09/04 04:07:28;;;;;;;11.13;10.23;;;14.80;99.90;;;;;;5070118;28;20028;-74
2023/09/04 04:09:53;;;;;;;11.27;10.18;;;14.80;99.90;;;;;;5070571;28;20381;-74
2023/09/04 04:12:22;;;;;;;11.32;10.25;;;14.80;99.90;;;;;;5069777;28;20021;-74
2023/09/04 04:14:48;;;;;;;11.55;10.35;;;14.80;99.90;;;;;;5070444;28;20035;-74
2023/09/04 04:17:13;;;;;;;12.65;11.43;;;14.80;99.90;;;;;;5062914;28;20017;-74
2023/09/04 04:19:39;;;;;;;12.23;11.02;;;14.80;99.90;;;;;;5059855;28;20029;-74
2023/09/04 04:22:04;;;;;;;12.70;11.25;;;14.80;99.90;;;;;;5069666;28;20434;-75
2023/09/04 04:24:30;;;;;;;12.93;11.70;;;14.80;99.90;;;;;;5070111;28;20370;-74
2023/09/04 04:26:55;;;;;;;12.43;11.25;;;14.80;99.90;;;;;;5054893;28;20029;-74
2023/09/04 04:29:21;;;;;;;14.35;13.05;;;14.80;99.90;;;;;;5050691;28;20490;-74
2023/09/04 04:31:47;;;;;;;14.05;12.65;;;14.80;99.90;;;;;;5052261;28;20386;-75
2023/09/04 04:34:12;;;;;;;13.27;12.00;;;14.80;99.90;;;;;;5065188;28;20134;-75
2023/09/04 04:36:38;;;;;;;12.27;11.07;;;14.80;99.90;;;;;;5054344;28;20082;-75
2023/09/04 04:39:03;;;;;;;13.07;11.73;;;14.80;99.90;;;;;;5070445;28;20024;-75
2023/09/04 04:41:32;;;;;;;14.15;12.80;;;14.80;99.90;;;;;;5066798;28;20112;-75
2023/09/04 04:43:57;;;;;;;14.30;12.77;;;14.80;99.90;;;;;;5070394;28;20070;-75
2023/09/04 04:46:23;;;;;;;14.35;12.85;;;14.80;99.90;;;;;;5068581;28;20033;-74
2023/09/04 04:48:49;;;;;;;14.50;13.10;;;14.80;99.90;;;;;;5069733;28;20115;-75
2023/09/04 04:51:15;;;;;;;14.18;12.68;;;14.80;99.90;;;;;;5069891;28;20043;-74
2023/09/04 04:53:40;;;;;;;15.18;13.65;;;14.90;99.90;;;;;;5050626;28;20482;-75
2023/09/04 04:56:06;;;;;;;14.25;12.77;;;14.80;99.90;;;;;;5065750;28;20041;-75
2023/09/04 04:58:31;;;;;;;14.73;13.25;;;14.90;99.90;;;;;;5059313;28;20382;-74
2023/09/04 05:00:57;;;;;;;13.88;12.70;;;14.90;99.90;;;;;;5050017;28;20033;-74
2023/09/04 05:03:23;;;;;;;13.95;12.55;;;14.90;99.90;;;;;;5049944;28;20033;-74
2023/09/04 05:05:48;;;;;;;15.23;13.85;;;14.90;99.90;;;;;;5051923;28;20021;-74
2023/09/04 05:08:14;;;;;;;15.15;13.75;;;14.90;99.90;;;;;;5079706;28;20028;-75
2023/09/04 05:10:40;;;;;;;14.80;13.30;;;15.00;99.90;;;;;;5069022;28;20107;-74
2023/09/04 05:13:05;;;;;;;13.00;11.85;;;14.90;99.90;;;;;;5069587;28;20024;-75
2023/09/04 05:15:31;;;;;;;14.00;12.68;;;15.00;99.90;;;;;;5064978;28;20029;-74
2023/09/04 05:17:56;;;;;;;15.38;13.80;;;15.00;99.90;;;;;;5068197;28;20494;-75
2023/09/04 05:20:22;;;;;;;12.75;11.55;;;15.00;99.90;;;;;;5067896;28;20075;-74
2023/09/04 05:22:47;;;;;;;16.58;14.88;;;15.00;99.90;;;;;;5069151;28;20035;-74
2023/09/04 05:25:13;;;;;;;13.65;12.43;;;15.10;99.90;;;;;;5067016;28;20074;-74
2023/09/04 05:27:39;;;;;;;12.90;11.80;;;15.10;99.90;;;;;;5066530;28;20036;-74
2023/09/04 05:30:05;;;;;;;14.23;12.75;;;15.10;99.90;;;;;;5067860;28;20035;-74
2023/09/04 05:32:31;;;;;;;14.35;12.90;;;15.10;99.90;;;;;;5068800;28;20016;-74
2023/09/04 05:34:56;;;;;;;13.20;11.90;;;15.10;99.90;;;;;;5068993;28;20358;-75
2023/09/04 05:37:22;;;;;;;13.77;12.48;;;15.10;99.90;;;;;;5068796;28;20059;-75
2023/09/04 05:39:48;;;;;;;13.55;12.25;;;15.20;99.90;;;;;;5068642;28;20085;-74
2023/09/04 05:42:13;;;;;;;13.40;12.10;;;15.20;99.90;;;;;;5069019;28;20511;-75
2023/09/04 05:44:39;;;;;;;14.40;12.98;;;15.20;99.90;;;;;;5068070;28;20032;-74
2023/09/04 05:47:05;;;;;;;12.85;11.68;;;15.20;99.90;;;;;;5069077;28;20566;-74
2023/09/04 05:49:30;;;;;;;13.32;11.93;;;15.30;99.90;;;;;;5068046;28;20021;-75
2023/09/04 05:51:56;;;;;;;13.57;11.98;;;15.30;99.90;;;;;;5077468;28;20029;-74
2023/09/04 05:54:23;;;;;;;13.88;12.48;;;15.30;99.90;;;;;;5063853;28;20032;-74
2023/09/04 05:56:49;;;;;;;14.40;12.75;;;15.30;99.90;;;;;;5068914;28;20040;-75
2023/09/04 05:59:15;;;;;;;13.50;12.20;;;15.40;99.90;;;;;;5067607;28;20055;-74
2023/09/04 06:01:40;;;;;;;14.88;13.10;;;15.40;99.90;;;;;;5068559;28;20029;-74
2023/09/04 06:04:06;;;;;;;12.95;11.80;;;15.50;99.90;;;;;;5068392;28;20033;-74
2023/09/04 06:06:31;;;;;;;12.48;11.32;;;15.50;99.90;;;;;;5066021;28;20016;-71
2023/09/04 06:08:57;;;;;;;13.02;11.80;;;15.60;99.90;;;;;;5063616;28;20097;-71
2023/09/04 06:11:23;;;;;;;13.88;12.57;;;15.50;99.90;;;;;;5068669;28;20017;-71
2023/09/04 06:13:51;;;;;;;14.57;13.32;;;15.60;99.90;;;;;;5067852;28;20099;-71
2023/09/04 06:16:19;;;;;;;14.60;13.30;;;15.60;99.90;;;;;;5060717;28;20719;-71
2023/09/04 06:18:45;;;;;;;16.42;14.98;;;15.60;99.90;;;;;;5061989;28;20024;-71
2023/09/04 06:21:11;;;;;;;13.48;12.18;;;15.70;99.90;;;;;;5053363;28;20079;-71
2023/09/04 06:23:36;;;;;;;15.43;14.00;;;15.70;99.90;;;;;;5049584;28;20162;-71
2023/09/04 06:26:03;;;;;;;14.60;13.20;;;15.70;99.90;;;;;;5049272;28;20023;-70
2023/09/04 06:28:28;;;;;;;15.73;14.23;;;15.80;99.90;;;;;;5050264;28;20095;-70
2023/09/04 06:30:55;;;;;;;15.45;13.93;;;15.80;99.90;;;;;;5060181;28;20024;-70
2023/09/04 06:33:23;;;;;;;15.73;14.18;;;15.90;99.90;;;;;;5048611;28;20013;-70
2023/09/04 06:35:49;;;;;;;15.40;13.50;;;15.90;99.90;;;;;;5057920;28;20028;-71
2023/09/04 06:38:15;;;;;;;14.98;13.55;;;16.00;99.90;;;;;;5048638;28;20071;-71
2023/09/04 06:40:42;;;;;;;15.15;13.68;;;16.00;99.90;;;;;;5048833;28;20061;-70
2023/09/04 06:43:08;;;;;;;16.23;14.73;;;16.10;99.90;;;;;;5048146;28;20056;-70
2023/09/04 06:45:36;;;;;;;16.38;14.98;;;16.10;99.90;;;;;;5048769;28;20386;-71
2023/09/04 06:48:02;;;;;;;14.52;13.23;;;16.20;99.90;;;;;;5048943;28;20078;-70
2023/09/04 06:50:27;;;;;;;16.83;15.30;;;16.20;99.90;;;;;;5060234;28;20043;-71
2023/09/04 06:52:53;;;;;;;15.60;14.10;;;16.30;99.90;;;;;;5070814;28;20036;-70
2023/09/04 06:55:18;;;;;;;15.82;14.27;;;16.30;99.90;;;;;;5062852;28;20502;-71
2023/09/04 06:57:44;;;;;;;15.80;14.35;;;16.40;99.90;;;;;;5051520;28;21217;-71
2023/09/04 07:00:11;;;;;;;15.57;14.20;;;16.40;99.90;;;;;;5052543;28;20040;-71
2023/09/04 07:02:36;;;;;;;14.82;13.48;;;16.50;99.90;;;;;;5069324;28;20032;-71
2023/09/04 07:05:03;;;;;;;14.73;13.32;;;16.60;99.90;;;;;;5057317;28;20031;-70
2023/09/04 07:07:28;;;;;;;14.07;12.60;;;16.60;99.90;;;;;;5057230;28;20045;-70
2023/09/04 07:09:54;;;;;;;14.13;12.65;;;16.70;99.90;;;;;;5063969;28;20036;-71
2023/09/04 07:12:19;;;;;;;12.32;11.23;;;16.70;99.90;;;;;;5068697;28;20035;-71
2023/09/04 07:14:45;;;;;;;16.23;13.63;;;16.80;99.90;;;;;;5066431;28;20066;-70
2023/09/04 07:17:10;;;;;;;13.65;12.45;;;16.90;99.90;;;;;;5064082;28;20060;-71
2023/09/04 07:19:37;;;;;;;13.32;11.95;;;17.00;99.90;;;;;;5061870;28;20094;-71
2023/09/04 07:22:03;;;;;;;14.73;13.20;;;17.00;99.90;;;;;;5066689;28;20500;-71
2023/09/04 07:24:28;;;;;;;12.60;11.40;;;17.20;99.90;;;;;;5060227;28;20067;-71
2023/09/04 07:26:54;;;;;;;13.30;12.20;;;17.20;99.90;;;;;;5069570;28;20508;-71
2023/09/04 07:29:20;;;;;;;10.70;9.73;;;17.30;99.90;;;;;;5071038;28;20469;-71
2023/09/04 07:31:45;;;;;;;11.35;10.35;;;17.40;99.90;;;;;;5070434;28;20021;-71
2023/09/04 07:34:11;;;;;;;11.77;10.77;;;17.50;99.90;;;;;;5068237;28;20442;-71
2023/09/04 07:36:36;;;;;;;11.88;10.88;;;17.60;99.90;;;;;;5066707;28;20021;-71
2023/09/04 07:39:02;;;;;;;13.20;11.20;;;17.70;99.90;;;;;;5070659;28;20081;-71
2023/09/04 07:41:28;;;;;;;11.25;10.05;;;17.80;99.90;;;;;;5068388;28;20055;-71
2023/09/04 07:43:53;;;;;;;9.38;8.57;;;17.90;99.90;;;;;;5069109;28;20108;-71
2023/09/04 07:46:19;;;;;;;10.27;9.23;;;18.00;99.90;;;;;;5066527;28;20028;-71
2023/09/04 07:48:45;;;;;;;9.15;8.43;;;18.10;99.90;;;;;;5061364;28;20060;-71
2023/09/04 07:51:10;;;;;;;10.35;9.35;;;18.20;99.90;;;;;;5069172;28;20017;-71
2023/09/04 07:53:36;;;;;;;10.75;9.80;;;18.30;99.90;;;;;;5062467;28;20363;-71
2023/09/04 07:56:01;;;;;;;9.15;8.13;;;18.40;99.90;;;;;;5053775;28;20042;-71
2023/09/04 07:58:27;;;;;;;8.45;7.57;;;18.40;99.90;;;;;;5055559;28;20104;-71
2023/09/04 08:00:52;;;;;;;10.48;9.15;;;18.50;99.90;;;;;;5074643;28;20158;-71
2023/09/04 08:03:19;;;;;;;9.68;8.77;;;18.50;99.90;;;;;;5052240;28;20028;-71
2023/09/04 08:05:45;;;;;;;9.38;8.48;;;18.70;99.90;;;;;;5058275;28;20025;-71
2023/09/04 08:08:11;;;;;;;10.40;9.40;;;18.70;99.90;;;;;;5054025;28;20025;-72
2023/09/04 08:10:43;;;;;;;9.75;8.70;;;18.80;99.90;;;;;;5052168;28;20013;-71
2023/09/04 08:13:20;;;;;;;10.90;9.90;;;18.90;99.90;;;;;;5051508;28;20025;-72
2023/09/04 08:15:46;;;;;;;8.52;7.72;;;19.00;99.90;;;;;;5052336;28;20024;-71
2023/09/04 08:18:12;;;;;;;8.13;7.43;;;19.00;99.90;;;;;;5050534;28;20033;-71
2023/09/04 08:20:38;;;;;;;9.50;8.55;;;19.10;99.90;;;;;;5051813;28;20032;-71
2023/09/04 08:23:06;;;;;;;8.43;7.68;;;19.20;99.90;;;;;;5050802;28;20024;-71
2023/09/04 08:25:32;;;;;;;8.43;7.47;;;19.30;99.90;;;;;;5060918;28;20029;-72
2023/09/04 08:27:58;;;;;;;9.75;8.85;;;19.40;99.90;;;;;;5065849;28;20043;-71
2023/09/04 08:30:24;;;;;;;9.57;8.02;;;19.50;99.90;;;;;;5062342;28;20029;-71
2023/09/04 08:32:50;;;;;;;10.02;8.40;;;19.50;99.90;;;;;;5066311;28;20474;-71
2023/09/04 08:35:16;;;;;;;8.25;7.55;;;19.60;99.90;;;;;;5062524;28;20056;-71
2023/09/04 08:37:41;;;;;;;8.20;7.50;;;19.60;99.90;;;;;;5065852;28;20024;-71
2023/09/04 08:40:07;;;;;;;9.90;7.35;;;19.70;99.90;;;;;;5062163;28;20032;-72
2023/09/04 08:42:35;;;;;;;9.70;6.93;;;19.70;99.90;;;;;;5065282;28;20413;-72
2023/09/04 08:45:02;;;;;;;6.93;6.30;;;19.80;99.90;;;;;;5063084;28;20017;-71
2023/09/04 08:47:28;;;;;;;8.57;6.95;;;19.90;99.90;;;;;;5064254;28;20108;-71
2023/09/04 08:49:57;;;;;;;8.65;7.40;;;19.90;99.90;;;;;;5050511;28;20029;-71
2023/09/04 08:52:22;;;;;;;7.00;6.13;;;20.00;99.90;;;;;;5054188;28;20055;-71
2023/09/04 08:54:50;;;;;;;5.90;5.38;;;20.10;99.90;;;;;;5061505;28;20060;-71
2023/09/04 08:57:16;;;;;;;7.07;5.70;;;20.20;99.90;;;;;;5059315;28;20029;-71
2023/09/04 08:59:41;;;;;;;5.80;5.20;;;20.20;99.90;;;;;;5053925;28;20025;-71
2023/09/04 09:02:15;;;;;;;7.47;4.95;;;20.30;99.90;;;;;;5058434;28;20085;-71
2023/09/04 09:04:42;;;;;;;5.38;4.55;;;20.40;99.90;;;;;;5057346;28;20039;-71
2023/09/04 09:07:09;;;;;;;6.80;5.75;;;20.40;99.90;;;;;;5062399;28;20044;-71
2023/09/04 09:09:38;;;;;;;8.40;5.60;;;20.60;99.90;;;;;;5061038;28;20123;-71
2023/09/04 09:12:04;;;;;;;5.57;5.03;;;20.60;99.90;;;;;;5062346;28;20081;-71
2023/09/04 09:14:31;;;;;;;7.15;4.53;;;20.70;99.90;;;;;;5062062;28;20505;-71
2023/09/04 09:17:14;;;;;;;5.07;4.45;;;20.80;99.80;;;;;;5065672;28;20028;-71
2023/09/04 09:19:41;;;;;;;5.60;4.18;;;20.80;99.60;;;;;;5043335;28;20486;-71
2023/09/04 09:22:13;;;;;;;6.95;5.00;;;20.90;99.50;;;;;;5031836;28;20081;-71
2023/09/04 09:24:47;;;;;;;4.03;3.63;;;21.00;99.40;;;;;;5040985;28;20120;-71
2023/09/04 09:27:13;;;;;;;4.43;4.03;;;21.10;99.50;;;;;;5057465;28;20104;-71
2023/09/04 09:29:39;;;;;;;4.28;3.75;;;21.20;99.40;;;;;;5047989;28;20148;-70
2023/09/04 09:32:05;;;;;;;5.13;4.63;;;21.30;99.10;;;;;;5052321;28;20112;-70
2023/09/04 09:34:34;;;;;;;6.13;4.32;;;21.40;98.70;;;;;;5044514;28;20021;-70
2023/09/04 09:37:00;;;;;;;5.72;5.13;;;21.50;98.60;;;;;;5045899;28;20482;-70
2023/09/04 09:39:26;;;;;;;5.03;4.10;;;21.60;98.30;;;;;;5057463;28;20157;-70
2023/09/04 09:41:52;;;;;;;5.55;4.43;;;21.70;98.20;;;;;;5065258;28;20035;-71
2023/09/04 09:44:17;;;;;;;7.47;4.20;;;21.80;98.30;;;;;;5065016;28;20027;-70
2023/09/04 09:46:43;;;;;;;6.28;5.18;;;21.90;98.20;;;;;;5059940;28;20474;-73
2023/09/04 09:49:10;;;;;;;5.10;4.32;;;21.90;97.80;;;;;;5046208;28;20036;-72
2023/09/04 09:51:37;;;;;;;5.38;3.92;;;22.00;97.70;;;;;;5052172;28;20124;-72
2023/09/04 09:54:05;;;;;;;4.30;3.90;;;22.00;97.60;;;;;;5053792;28;20032;-73
2023/09/04 09:56:32;;;;;;;5.95;4.10;;;22.10;97.50;;;;;;5044636;28;20135;-72
2023/09/04 09:58:58;;;;;;;5.72;4.45;;;22.20;97.50;;;;;;5046026;28;20032;-71
2023/09/04 10:01:27;;;;;;;9.60;5.30;;;22.30;97.70;;;;;;5043921;28;20079;-72
2023/09/04 10:03:54;;;;;;;5.03;4.35;;;22.40;97.30;;;;;;5048032;28;20028;-71
2023/09/04 10:06:29;;;;;;;6.32;4.60;;;22.40;97.10;;;;;;5045672;28;20055;-72
2023/09/04 10:08:58;;;;;;;6.10;3.65;;;22.50;97.10;;;;;;5058117;28;20036;-72
2023/09/04 10:11:25;;;;;;;5.45;4.20;;;22.60;97.00;;;;;;5056689;28;20025;-71
2023/09/04 10:13:54;;;;;;;4.70;3.22;;;22.60;96.70;;;;;;5045487;28;20035;-71
2023/09/04 10:16:35;;;;;;;5.22;4.18;;;22.70;96.50;;;;;;5044545;28;20033;-71
2023/09/04 10:19:02;;;;;;;5.38;3.97;;;22.80;96.00;;;;;;5045005;28;20029;-72
2023/09/04 10:21:40;;;;;;;4.55;4.00;;;22.80;95.80;;;;;;5045986;28;20123;-72
2023/09/04 10:24:12;;;;;;;6.45;4.30;;;22.90;95.80;;;;;;5047580;28;20028;-71
2023/09/04 10:26:50;;;;;;;4.75;3.53;;;22.90;95.70;;;;;;5049287;28;20055;-71
2023/09/04 10:29:25;;;;;;;4.30;3.80;;;23.00;95.60;;;;;;5048562;28;20482;-71
2023/09/04 10:31:51;;;;;;;4.55;4.15;;;23.00;95.70;;;;;;5049514;28;20430;-72
2023/09/04 10:34:17;;;;;;;3.95;3.42;;;23.00;95.50;;;;;;5049213;28;20103;-71
2023/09/04 10:36:43;;;;;;;4.55;3.47;;;23.10;95.60;;;;;;5062196;28;20492;-72
2023/09/04 10:39:08;;;;;;;4.28;3.70;;;23.20;95.60;;;;;;5064512;28;20477;-71
2023/09/04 10:41:35;;;;;;;6.57;3.47;;;23.20;95.20;;;;;;5054949;28;20017;-71
2023/09/04 10:44:01;;;;;;;4.43;3.83;;;23.20;95.20;;;;;;5054403;28;20048;-72
2023/09/04 10:46:27;;;;;;;3.90;3.60;;;23.30;95.20;;;;;;5060457;28;20036;-72
2023/09/04 10:48:53;;;;;;;3.75;2.72;;;23.30;95.30;;;;;;5056757;28;20029;-72
2023/09/04 10:51:25;;;;;;;4.60;3.60;;;23.30;95.10;;;;;;5060447;28;20488;-72
2023/09/04 10:53:50;;;;;;;4.90;2.92;;;23.40;94.80;;;;;;5071192;28;20031;-72
2023/09/04 10:56:16;;;;;;;4.38;3.17;;;23.40;94.80;;;;;;5064555;28;20053;-73
2023/09/04 10:59:08;;;;;;;3.88;2.85;;;23.40;94.40;;;;;;5066043;28;20028;-72
2023/09/04 11:01:38;;;;;;;5.00;3.40;;;23.40;94.30;;;;;;5057230;28;20128;-72
2023/09/04 11:04:05;;;;;;;6.85;2.92;;;23.50;94.00;;;;;;5064106;28;20489;-72
2023/09/04 11:06:34;;;;;;;3.42;2.88;;;23.50;93.90;;;;;;5063742;28;20052;-72
2023/09/04 11:09:02;;;;;;;3.17;2.67;;;23.50;93.80;;;;;;5065181;28;20555;-72
2023/09/04 11:11:28;;;;;;;4.10;3.35;;;23.50;93.80;;;;;;5061237;28;20037;-72
2023/09/04 11:14:02;;;;;;;3.50;3.20;;;23.50;93.90;;;;;;5060992;28;20031;-72
2023/09/04 11:16:42;;;;;;;5.22;2.70;;;23.60;93.80;;;;;;5059036;28;20088;-72
2023/09/04 11:19:13;;;;;;;3.67;3.38;;;23.60;93.70;;;;;;5057406;28;20031;-72
2023/09/04 11:21:42;;;;;;;3.67;3.10;;;23.60;93.50;;;;;;5058872;28;20035;-72
2023/09/04 11:24:08;;;;;;;4.72;3.47;;;23.60;93.60;;;;;;5056077;28;20490;-72
2023/09/04 11:26:34;;;;;;;4.78;3.50;;;23.60;93.60;;;;;;5057067;28;20048;-72
2023/09/04 11:29:01;;;;;;;3.35;3.05;;;23.60;93.50;;;;;;5046563;28;20486;-72
2023/09/04 11:31:29;;;;;;;6.57;3.63;;;23.60;93.30;;;;;;5064030;28;20433;-71
2023/09/04 11:33:55;;;;;;;7.85;3.55;;;23.60;93.70;;;;;;5061595;28;20024;-72
2023/09/04 11:36:22;;;;;;;4.45;3.35;;;23.70;93.80;;;;;;5060938;28;20103;-72
2023/09/04 11:38:51;;;;;;;8.35;3.70;;;23.70;93.80;;;;;;5055825;28;20029;-72
2023/09/04 11:41:18;;;;;;;6.13;3.63;;;23.80;93.70;;;;;;5058946;28;20093;-72
2023/09/04 11:43:44;;;;;;;4.22;3.67;;;23.80;93.40;;;;;;5053713;28;20065;-72
2023/09/04 11:46:11;;;;;;;8.45;3.60;;;23.80;93.30;;;;;;5066741;28;20020;-72
2023/09/04 11:48:37;;;;;;;3.80;3.25;;;23.80;93.20;;;;;;5053272;28;20433;-71
2023/09/04 11:51:07;;;;;;;4.82;3.38;;;23.80;93.20;;;;;;5069366;28;20048;-71
2023/09/04 11:53:33;;;;;;;3.88;3.25;;;23.80;93.00;;;;;;5062138;28;20381;-72
2023/09/04 11:55:59;;;;;;;4.72;3.10;;;23.80;93.00;;;;;;5050932;28;20048;-72
2023/09/04 11:58:25;;;;;;;4.28;2.90;;;23.80;93.00;;;;;;5052573;28;20110;-72
2023/09/04 12:00:51;;;;;;;3.30;3.00;;;23.80;93.00;;;;;;5059843;28;20021;-72
2023/09/04 12:03:17;;;;;;;7.22;4.13;;;23.80;93.00;;;;;;5063129;28;20554;-71
2023/09/04 12:05:42;;;;;;;6.30;4.43;;;23.80;92.90;;;;;;5053965;28;20040;-72
2023/09/04 12:08:09;;;;;;;4.40;4.00;;;23.90;92.90;;;;;;5063161;28;20052;-71
2023/09/04 12:10:37;;;;;;;6.20;3.53;;;23.90;93.30;;;;;;5064048;28;20154;-72
2023/09/04 12:13:03;;;;;;;3.13;2.75;;;23.90;93.10;;;;;;5063324;28;20039;-72
2023/09/04 12:15:30;;;;;;;4.63;4.18;;;24.00;93.20;;;;;;5063927;28;20378;-71
2023/09/04 12:17:58;;;;;;;4.50;3.08;;;24.00;93.40;;;;;;5058792;28;20027;-70
2023/09/04 12:20:24;;;;;;;4.32;3.92;;;24.10;93.30;;;;;;5059242;28;20040;-72
2023/09/04 12:22:57;;;;;;;3.60;3.30;;;24.10;93.30;;;;;;5063337;28;20028;-71
2023/09/04 12:25:37;;;;;;;3.78;3.47;;;24.20;93.50;;;;;;5060370;28;20018;-72
2023/09/04 12:28:06;;;;;;;6.22;3.83;;;24.30;93.50;;;;;;5048457;28;20154;-72
2023/09/04 12:30:36;;;;;;;5.15;4.65;;;24.30;93.50;;;;;;5058140;28;20370;-71
2023/09/04 12:33:04;;;;;;;4.60;4.15;;;24.20;93.30;;;;;;5060223;28;20083;-73
2023/09/04 12:35:32;;;;;;;5.63;4.45;;;24.30;93.30;;;;;;5053715;28;20020;-71
2023/09/04 12:37:58;;;;;;;5.38;4.90;;;24.30;93.10;;;;;;5053988;28;20025;-71